Los Angeles, CA (90016)

7:15 AM PDT on September 18, 2014 (GMT -0700)
CBS Radio, Venice and Fairfax | Change Station
CLOSE
Current Station
Personal Weather Station
Location: Los Angeles, CA
Elevation: 97 ft
Nearby Weather Stations
Active Advisory: Beach Hazard Statement Active Notice: Record Report

Elev 97 ft 34.04 °N, 118.37 °W | Updated 5 minutes ago

Clear
Clear
68.0 °F
Feels Like 68.0 °F
N
0.0
Wind Variable Wind from South
Gusts 0.0 mph

Today
High -- | Low -- °F
--% Chance of Precip.
Yesterday
High -- | Low -- °F
Precip. -- in
6:38 AM 6:55 PM
Waning Crescent, 27% visible
Pressure 29.84 in
Visibility 10.0 miles
Clouds Clear
Dew Point 63 °F
Humidity 85%
Rainfall 0.00 in
Snow Depth 0 in , 1 in , 0 in
UV 0 out of 12
Pollen 6.80 out of 12
Air Quality Not available.
Flu Activity Not available.
METAR KSMO 181351Z 00000KT 10SM CLR 20/15 A2984 RMK AO2 SLP103 T02000150 $

More Conditions Fewer Conditions

Pressure 29.84 in
Visibility 10.0 miles
Clouds Clear
Dew Point 63 °F
Humidity 85%
Rainfall 0.00 in
Snow Depth 0 in , 1 in , 0 in
UV 0 out of 12
Pollen 6.80 out of 12
Air Quality Not available.
Flu Activity Not available.
METAR KSMO 181351Z 00000KT 10SM CLR 20/15 A2984 RMK AO2 SLP103 T02000150 $

More Conditions Fewer Conditions

10-Day Weather Forecast

Almanac

Astronomy

Sep. 18, 2014 Rise Set
Actual Time 6:38 AM PDT 6:55 PM PDT
Civil Twilight 6:13 AM PDT 7:20 PM PDT
Nautical Twilight 5:44 AM PDT 7:49 PM PDT
Astronomical Twilight 5:14 AM PDT 8:19 PM PDT
Moon 1:45 AM PDT 3:40 PM PDT
Length of Visible Light 13h 06m
Length of Day
12h 16m
Tomorrow will be 2m 6s shorter.
Waning Crescent, 27% of the Moon is Illuminated
Today
Waning Crescent
Sep 24
New
Oct 1
First Quarter
Oct 8
Full
Oct 15
Last Quarter

Today's Extremes

State Highs State Lows

Community

WunderPhotos

Upload Photos

1,754,354 photos uploaded!

Nearby

Air Quality

  Air Quality AQ Index Pollutant
Yesterday Good
OZONE
Thursday Good
PM10
Thursday Good
OZONE
Thursday Good
CO
Thursday Good
NO2

Snow Depth

Station Depth Elevation
Rubicon #2 0 in 7500 ft
Echo Peak 1 in 7800 ft
Squaw Valley 0 in 8200 ft
Adin Mountain 1 in 6200 ft
Monitor Pass 0 in 8350 ft

Earthquake Activity

City Distance Mag. Time & Date
La Quinta, California 114 miles 2.7 8:59 PM PDT
2014-09-15
Minimum magnitude displayed is 2.5.

Coastal Water Temperatures

Place Temperature
Santa Monica Pier 68.0 °F
Los Angeles, CA 66.9 °F
La Jolla, CA 69.1 °F

Nearby Weather Stations